メインページ
METAR-TAF:

METAR-TAF

空港 :

マウント・プレザント空軍基地

スタンリー, フォークランド諸島

緯度: 51-49S, 経度: 058-27W, 海抜: 74m

現時点の気象観測

当レポートは36分前の05:50(UTC)に作成
西の風 11kt
気温 3°C
湿度 87%
気圧 1020 hPa
視程10km以上
高度1700ftの千切れ雲あり

METAR: EGYP 200550Z 27011KT 9999 BKN017 03/01 Q1020 WHT

時間: 03:26 (06:26 UTC)

予報

当レポートは1時間59分前の04:27(UTC)に作成
予報は20日の 06時(UTC)から 20日の 24時(UTC)まで有効
西/南西の風 12kt
視程10km以上
高度2000ftの千切れ雲あり
20日の 06時(UTC)から 20日の 09時(UTC)まで一時的に
高度800ftの千切れ雲あり
20日の 08時(UTC)から 20日の 11時(UTC)まで徐々に
西/北西の風 15kt
高度2500ftの雲はほとんどない
20日の 15時(UTC)から 20日の 18時(UTC)まで徐々に
西/北西の風 18kt、最大28ktの突風を伴う
20日の 19時(UTC)から 20日の 22時(UTC)まで徐々に
高度1500ftの千切れ雲あり
20日の 22時(UTC)から 20日の 24時(UTC)まで徐々に
高度800ftの千切れ雲あり
20日の 23時(UTC)から 20日の 24時(UTC)まで一時的に
高度600ftの千切れ雲あり

TAF: EGYP 200427Z 2006/2024 25012KT 9999 BKN020 TEMPO 2006/2009 BKN008 BECMG 2008/2011 29015KT FEW025 BECMG 2015/2018 30018G28KT BECMG 2019/2022 BKN015 BECMG 2022/2024 BKN008 TEMPO 2023/2024 BKN006

4,000以上の空港の気象観測と天気予報(METAR報とTAF報)

利用可能な観測所は地図上に黄色い丸と赤い丸で示す。

丸の上にカーソルを重ねると観測所名を参照できる。

次にクリックすると気象観測と天気予報を参照できる。

マップの切り替え:黒色「×」印の緑ボタンをクリックして拡大、「-」印の緑ボタンをクリックして縮小、緑色の三角印をクリックして隣りの地図に切り替え


METAR-TAF: